Thunder radar more information blitzortung!


Radar de pluja more information rain snow radar


Visita la nostra xarxa de llocs de meteo:

Template documentation
and downloads

And another site



No particular awareness of the weather is required.    There are no Weather-warnings

Pagina Historial Weather Underground text

Diari Resum Novembre 28, 2017 Unitats:  Imperial    Mètric   Tant
« Previous Dia
SegĂźent Dia »
Diari Setmana Mensual Anual Personalitzada
  Maxima: Minima: Media:
Temperatura: 55.6 °F 35.4 °F 46.2 °F
Punt de rosada: 37 °F 22.3 °F 28.4 °F
Humitat: 68 % 40 % 51 %
Wind Speed: 12.7 mph 0 mph 2.6 mph
RĂ fegues de vent: 12.7 mph - -
Vent:- - South
Pression baro: 30.2 in 29.8 in -
Precipitacions: 0 in    
Historical Graphs
 
 
Dades de taula per Novembre 28, 2017
Temps Temperatura Punt de rosada Pression baro Vent Wind Speed RĂ fegues de vent Humitat Rainfall Rate (Hourly)
00:03 39.6 °F 27.7 °F 30.2 in West 1.2 mph   62 % 0 in
00:05 36 °F 26.4 °F 30.1 in Calm   2 mph 68 % 0 in
00:08 39.6 °F 27.7 °F 30.2 in Calm     62 % 0 in
00:13 39.4 °F 27.3 °F 30.2 in Calm     62 % 0 in
00:15 36 °F 26.4 °F 30.1 in Calm   2 mph 68 % 0 in
00:25 36 °F 26.4 °F 30.1 in SW 1 mph 1 mph 68 % 0 in
00:35 35.4 °F 25.9 °F 30.1 in SW 1 mph 2 mph 68 % 0 in
00:45 35.6 °F 26.1 °F 30.1 in SW 1 mph 2 mph 68 % 0 in
00:55 35.4 °F 25.9 °F 30.1 in Calm   2 mph 68 % 0 in
01:05 35.6 °F 25.7 °F 30.1 in WSW 1 mph 2 mph 67 % 0 in
01:15 35.4 °F 25.9 °F 30.1 in Calm   2 mph 68 % 0 in
01:25 35.4 °F 25.9 °F 30.1 in West 2 mph 2 mph 68 % 0 in
01:35 36 °F 26.1 °F 30.1 in West 1 mph 2 mph 67 % 0 in
01:45 36 °F 26.4 °F 30.1 in Calm   2 mph 68 % 0 in
01:55 35.6 °F 25.7 °F 30.1 in West 2 mph 2 mph 67 % 0 in
02:05 35.6 °F 25.7 °F 30.1 in WNW 1 mph 1 mph 67 % 0 in
02:15 35.8 °F 25.9 °F 30.1 in NW 1 mph 3 mph 67 % 0 in
02:25 35.8 °F 25.5 °F 30.1 in WNW 1 mph 2 mph 66 % 0 in
02:35 36.5 °F 26.6 °F 30.1 in West 1 mph 2 mph 67 % 0 in
02:45 37.4 °F 27.1 °F 30.1 in West 1 mph 4 mph 66 % 0 in
02:55 37.9 °F 27.1 °F 30.1 in NW 1 mph 3 mph 65 % 0 in
03:05 38.7 °F 27.5 °F 30.1 in North 2 mph 3 mph 64 % 0 in
03:15 39.6 °F 28.4 °F 30.1 in NNE 1 mph 3 mph 64 % 0 in
03:25 39.9 °F 28.2 °F 30.1 in NNE 2 mph 2 mph 63 % 0 in
03:35 40.5 °F 28.8 °F 30.1 in NNE 1 mph 3 mph 63 % 0 in
03:45 41.4 °F 29.3 °F 30.1 in North 2 mph 2 mph 62 % 0 in
03:55 41.7 °F 29.7 °F 30.1 in North 2 mph 4 mph 62 % 0 in
04:05 41.9 °F 29.5 °F 30.1 in NE 3 mph 3 mph 61 % 0 in
04:15 42.6 °F 30 °F 30.1 in NE 1 mph 3 mph 61 % 0 in
04:25 43.3 °F 30.4 °F 30.1 in NNE 1 mph 3 mph 60 % 0 in
04:35 44.2 °F 31.3 °F 30.1 in NNE 2 mph 3 mph 60 % 0 in
04:45 44.6 °F 31.1 °F 30.1 in NNE 3 mph 3 mph 59 % 0 in
10:46 44.6 °F 30.7 °F 30.1 in NNE 3.5 mph 3.5 mph 58 % 0 in
10:51 45 °F 31.1 °F 30.1 in ENE 2.3 mph 2.3 mph 58 % 0 in
10:56 45.1 °F 30.7 °F 30.1 in North 4.6 mph 4.6 mph 57 % 0 in
11:01 45.1 °F 30.7 °F 30.1 in NNE 4.6 mph 4.6 mph 57 % 0 in
11:06 45.3 °F 30.9 °F 30.1 in NE 5.8 mph 5.8 mph 57 % 0 in
11:11 46 °F 31.6 °F 30.1 in NE 2.9 mph 2.9 mph 57 % 0 in
11:24 46.6 °F 31.6 °F 30.1 in ESE 3.5 mph 3.5 mph 56 % 0 in
11:29 47.3 °F 32.4 °F 30.1 in WNW 4.6 mph 4.6 mph 56 % 0 in
11:34 47.5 °F 32.5 °F 30.1 in NNE 4.6 mph 4.6 mph 56 % 0 in
11:40 47.5 °F 32.2 °F 30.1 in NE 2 mph 2 mph 55 % 0 in
11:57 48.2 °F 32.7 °F 30.1 in WNW 2.3 mph 2.3 mph 55 % 0 in
12:02 49.3 °F 33.3 °F 30.1 in ENE 1.6 mph 1.6 mph 54 % 0 in
12:07 48.9 °F 32.5 °F 30.1 in ENE 4.6 mph 4.6 mph 53 % 0 in
12:28 49.3 °F 33.3 °F 30.1 in NNE 4.6 mph 4.6 mph 54 % 0 in
12:33 49.8 °F 33.4 °F 30 in NE 3.5 mph 3.5 mph 53 % 0 in
12:39 50.4 °F 34 °F 30 in NNE 3.5 mph 3.5 mph 53 % 0 in
12:44 50.4 °F 34 °F 30 in ENE 3.5 mph 3.5 mph 53 % 0 in
12:49 50.9 °F 34.3 °F 30 in ESE 2.3 mph 2.3 mph 53 % 0 in
12:54 52 °F 34.9 °F 30 in ESE 2.3 mph 2.3 mph 52 % 0 in
12:59 52.7 °F 35.6 °F 30 in SSW 2.3 mph 2.3 mph 52 % 0 in
13:04 53.4 °F 36.1 °F 30 in ESE 2.3 mph 2.3 mph 52 % 0 in
13:09 54.7 °F 36.9 °F 30 in SE 3.3 mph 3.3 mph 51 % 0 in
13:19 53.2 °F 35.6 °F 30 in East 4.6 mph 4.6 mph 51 % 0 in
13:24 53.4 °F 35.8 °F 30 in NW 2.4 mph 2.4 mph 51 % 0 in
13:29 54.1 °F 36.3 °F 30 in West 3.5 mph 3.5 mph 51 % 0 in
13:34 54.9 °F 37 °F 30 in WNW 5.8 mph 5.8 mph 51 % 0 in
13:39 55.2 °F 36.9 °F 30 in West 11.5 mph 11.5 mph 50 % 0 in
13:44 55.4 °F 36.5 °F 30 in WNW 10.4 mph 10.4 mph 49 % 0 in
13:49 55.4 °F 36.5 °F 30 in SW 6.9 mph 6.9 mph 49 % 0 in
13:50 55.6 °F 36.1 °F 30 in WSW 6.9 mph 6.9 mph 48 % 0 in
13:55 55.4 °F 34.9 °F 30 in WSW 12.7 mph 12.7 mph 46 % 0 in
14:00 55 °F 34.2 °F 30 in West 10.7 mph 10.7 mph 45 % 0 in
14:05 55 °F 33.4 °F 30 in WSW 11.5 mph 11.5 mph 44 % 0 in
14:10 55 °F 32.4 °F 30 in West 9.2 mph 9.2 mph 42 % 0 in
14:15 55.2 °F 33.1 °F 30 in West 8.1 mph 8.1 mph 43 % 0 in
14:20 55 °F 32.4 °F 30 in NW 10.4 mph 10.4 mph 42 % 0 in
14:25 55.2 °F 31.8 °F 30 in WNW 9.2 mph 9.2 mph 41 % 0 in
14:35 55.2 °F 31.8 °F 30 in West 3.5 mph 3.5 mph 41 % 0 in
14:50 55 °F 31.6 °F 29.9 in West 3.5 mph 3.5 mph 41 % 0 in
14:55 55 °F 31.6 °F 29.9 in WNW 3.5 mph 3.5 mph 41 % 0 in
15:00 55 °F 31.6 °F 29.9 in East 5.8 mph 5.8 mph 41 % 0 in
15:05 55 °F 31.6 °F 29.9 in NW 3.5 mph 3.5 mph 41 % 0 in
15:10 55 °F 31.6 °F 29.9 in SW 3.5 mph 3.5 mph 41 % 0 in
15:15 55 °F 31.6 °F 29.9 in WNW 4.9 mph 4.9 mph 41 % 0 in
15:25 55 °F 31.6 °F 29.9 in West 2.3 mph 2.3 mph 41 % 0 in
15:30 54.7 °F 31.5 °F 29.9 in North 4.6 mph 4.6 mph 41 % 0 in
15:45 54.3 °F 31.1 °F 29.9 in WSW 4.6 mph 4.6 mph 41 % 0 in
15:55 54.9 °F 31.6 °F 29.9 in NW 5.8 mph 5.8 mph 41 % 0 in
16:00 55 °F 31.6 °F 29.9 in WSW 1.2 mph 1.4 mph 41 % 0 in
16:05 54.9 °F 31.6 °F 29.9 in WNW 2.2 mph 2.2 mph 41 % 0 in
16:10 54.7 °F 31.5 °F 29.9 in WSW 2.3 mph 2.3 mph 41 % 0 in
16:15 55.2 °F 31.8 °F 29.9 in WSW 3.5 mph 3.5 mph 41 % 0 in
16:20 55.2 °F 31.8 °F 29.9 in SW 1.2 mph 1.2 mph 41 % 0 in
16:25 54.7 °F 31.5 °F 29.9 in North 1.2 mph 1.2 mph 41 % 0 in
16:35 54.5 °F 30.6 °F 29.9 in NNW 1.6 mph 1.6 mph 40 % 0 in
16:40 54.3 °F 30.6 °F 29.9 in SW 2.3 mph 2.3 mph 40 % 0 in
16:45 54.1 °F 30.4 °F 29.9 in WNW 1.2 mph 1.2 mph 40 % 0 in
16:50 54.1 °F 30.9 °F 29.9 in SSW 3.5 mph 3.5 mph 41 % 0 in
16:55 53.8 °F 30.6 °F 29.9 in West 3.5 mph 3.5 mph 41 % 0 in
17:00 53.1 °F 29.5 °F 29.9 in SW 3.5 mph 3.5 mph 40 % 0 in
17:05 52.9 °F 29.1 °F 29.9 in WSW 2.3 mph 2.3 mph 40 % 0 in
17:10 52.5 °F 28.9 °F 29.9 in SW 2.2 mph   40 % 0 in
17:15 51.8 °F 28.2 °F 29.9 in Calm     40 % 0 in
17:20 51.3 °F 27.7 °F 29.9 in SW 1.6 mph   40 % 0 in
17:30 50.4 °F 27 °F 29.9 in Calm     40 % 0 in
17:35 49.8 °F 26.4 °F 29.9 in Calm     40 % 0 in
17:40 49.3 °F 26.1 °F 29.9 in WNW 2.3 mph 2.3 mph 40 % 0 in
17:50 48.9 °F 26.2 °F 29.9 in SSW 2.4 mph 2.4 mph 41 % 0 in
17:55 48.7 °F 26.1 °F 29.9 in NW 2.3 mph 2.3 mph 41 % 0 in
18:10 48.6 °F 25.9 °F 29.9 in WSW 2.3 mph   41 % 0 in
18:15 48.4 °F 25.7 °F 29.9 in NW 1.6 mph   41 % 0 in
18:20 48.2 °F 25.5 °F 29.9 in SW 1.2 mph   41 % 0 in
18:25 48.2 °F 25.5 °F 29.9 in WSW 2.3 mph 2.3 mph 41 % 0 in
18:30 48 °F 25.3 °F 29.9 in ESE 2.4 mph   41 % 0 in
18:36 47.8 °F 25.2 °F 29.9 in Calm     41 % 0 in
18:40 47.8 °F 25.9 °F 29.9 in WNW 2.3 mph 2.3 mph 42 % 0 in
18:45 47.7 °F 25.7 °F 29.9 in NW 2.9 mph 2.9 mph 42 % 0 in
18:48 47.5 °F 25.5 °F 29.9 in WSW 3.5 mph 3.5 mph 42 % 0 in
18:53 47.5 °F 25.5 °F 29.9 in WSW 2.4 mph 2.4 mph 42 % 0 in
19:03 46.9 °F 25.5 °F 29.9 in West 2.3 mph 2.3 mph 43 % 0 in
19:08 46.8 °F 25.3 °F 29.9 in West 1.2 mph   43 % 0 in
19:13 46.6 °F 25.3 °F 29.9 in SSE 1.2 mph   43 % 0 in
19:18 46.2 °F 25 °F 29.9 in WSW 2.3 mph 2.3 mph 43 % 0 in
19:23 46 °F 25.3 °F 29.9 in West 2.4 mph 2.4 mph 44 % 0 in
19:33 45.7 °F 25 °F 29.9 in SW 3.5 mph 3.5 mph 44 % 0 in
19:43 44.8 °F 24.6 °F 29.9 in SW 1.2 mph   45 % 0 in
19:48 44.2 °F 24.3 °F 29.9 in Calm     45 % 0 in
19:53 43.9 °F 23.9 °F 29.9 in Calm     45 % 0 in
19:58 43.7 °F 24.3 °F 29.9 in NNE 2.3 mph 2.3 mph 46 % 0 in
20:03 43.7 °F 24.3 °F 29.9 in North 1.2 mph 1.2 mph 46 % 0 in
20:08 43.9 °F 24.4 °F 29.9 in Calm     46 % 0 in
20:13 44.2 °F 25.3 °F 29.9 in West 2.3 mph 2.3 mph 47 % 0 in
20:18 44.4 °F 25.3 °F 29.9 in West 2 mph 2 mph 47 % 0 in
20:23 44.4 °F 25.3 °F 29.9 in Calm     47 % 0 in
20:33 43.7 °F 25.3 °F 29.9 in NE 1.2 mph   48 % 0 in
20:38 43.5 °F 25.2 °F 29.9 in NNE 2.3 mph 2.3 mph 48 % 0 in
20:43 43.2 °F 24.8 °F 29.9 in NNE 2.3 mph 2.3 mph 48 % 0 in
20:48 43.2 °F 24.8 °F 29.9 in NNE 2.3 mph 2.3 mph 48 % 0 in
20:58 42.8 °F 25 °F 29.9 in Calm     49 % 0 in
21:03 43 °F 25.2 °F 29.9 in NNE 1.4 mph   49 % 0 in
21:08 42.8 °F 25 °F 29.9 in ENE 1.6 mph 1.6 mph 49 % 0 in
21:13 42.8 °F 25.3 °F 29.9 in NNE 2.3 mph 2.3 mph 50 % 0 in
21:18 42.8 °F 25.3 °F 29.9 in NE 2.3 mph 2.3 mph 50 % 0 in
21:28 42.8 °F 25.3 °F 29.9 in North 2.3 mph 2.3 mph 50 % 0 in
21:33 42.6 °F 25.3 °F 29.9 in North 1.2 mph   50 % 0 in
21:38 42.8 °F 25.3 °F 29.9 in WNW 1.4 mph 1.4 mph 50 % 0 in
21:43 42.8 °F 25.3 °F 29.9 in WNW 1.2 mph 1.2 mph 50 % 0 in
21:48 42.4 °F 25.2 °F 29.9 in Calm     50 % 0 in
21:53 42.3 °F 25 °F 29.9 in WNW 1.6 mph 1.6 mph 50 % 0 in
22:03 41.7 °F 25 °F 29.9 in West 1.2 mph   51 % 0 in
22:08 41.5 °F 24.6 °F 29.9 in Calm     51 % 0 in
22:18 41.7 °F 25 °F 29.9 in NNE 2.3 mph 2.3 mph 51 % 0 in
22:23 41.5 °F 24.6 °F 29.9 in East 1.4 mph   51 % 0 in
22:28 41 °F 24.6 °F 29.9 in SSE 2.9 mph 2.9 mph 52 % 0 in
22:38 40.6 °F 24.4 °F 29.9 in NNE 2.3 mph 2.3 mph 52 % 0 in
22:53 40.3 °F 24.1 °F 29.9 in NNE 1.4 mph 1.4 mph 52 % 0 in
22:54 40.3 °F 24.1 °F 29.9 in NNE 1.4 mph 1.4 mph 52 % 0 in
23:04 39.7 °F 24.1 °F 29.8 in North 1.2 mph 1.2 mph 53 % 0 in
23:09 39.7 °F 24.1 °F 29.8 in WSW 1.6 mph   53 % 0 in
23:19 38.3 °F 22.3 °F 29.8 in SW 2.3 mph 2.3 mph 52 % 0 in
23:24 38.5 °F 22.8 °F 29.8 in SW 2.3 mph 2.3 mph 53 % 0 in
23:29 38.5 °F 22.8 °F 29.8 in SW 1.2 mph   53 % 0 in
23:39 38.3 °F 22.6 °F 29.8 in SW 2.3 mph 2.3 mph 53 % 0 in
23:49 38.1 °F 22.8 °F 29.8 in WNW 1.2 mph   54 % 0 in
23:54 38.1 °F 22.8 °F 29.8 in WNW 1.4 mph 1.6 mph 54 % 0 in
23:59 38.1 °F 22.8 °F 29.8 in WSW 2.4 mph 2.4 mph 54 % 0 in
Meteo Sesrovires
Elogis d' Weather Underground - 3.25 mb

Guio original per  Jim McMurry - jmcmurry@mwt.net Adaptat per a la plantilla per  Wim van der Kuil - Leuven-Template.eu

Trobareu la nostra informacio del temps tambe a:

Weather Underground

AWEKAS